sensor_id;sensor_type;location;lat;lon;timestamp;pressure;altitude;pressure_sealevel;temperature;humidity
75026;BME280;63591;50.080;8.286;2022-12-07T00:01:13;99838.50;;;12.58;51.92
75026;BME280;63591;50.080;8.286;2022-12-07T00:03:40;99838.97;;;12.61;51.92
75026;BME280;63591;50.080;8.286;2022-12-07T00:06:07;99833.72;;;12.61;51.73
75026;BME280;63591;50.080;8.286;2022-12-07T00:08:34;99836.34;;;12.61;51.90
75026;BME280;63591;50.080;8.286;2022-12-07T00:11:02;99829.44;;;12.60;52.04
75026;BME280;63591;50.080;8.286;2022-12-07T00:13:28;99831.25;;;12.60;51.91
75026;BME280;63591;50.080;8.286;2022-12-07T00:15:54;99820.72;;;12.60;52.01
75026;BME280;63591;50.080;8.286;2022-12-07T00:18:19;99821.69;;;12.59;52.00
75026;BME280;63591;50.080;8.286;2022-12-07T00:20:44;99807.69;;;12.58;51.99
75026;BME280;63591;50.080;8.286;2022-12-07T00:23:10;99808.53;;;12.59;52.10
75026;BME280;63591;50.080;8.286;2022-12-07T00:25:35;99798.84;;;12.59;52.31
75026;BME280;63591;50.080;8.286;2022-12-07T00:28:00;99793.38;;;12.61;52.03
75026;BME280;63591;50.080;8.286;2022-12-07T00:30:26;99796.84;;;12.61;51.95
75026;BME280;63591;50.080;8.286;2022-12-07T00:32:51;99789.78;;;12.62;51.88
75026;BME280;63591;50.080;8.286;2022-12-07T00:35:16;99787.16;;;12.62;52.05
75026;BME280;63591;50.080;8.286;2022-12-07T00:37:42;99787.16;;;12.62;52.30
75026;BME280;63591;50.080;8.286;2022-12-07T00:40:07;99789.78;;;12.62;52.07
75026;BME280;63591;50.080;8.286;2022-12-07T00:42:33;99791.44;;;12.63;52.25
75026;BME280;63591;50.080;8.286;2022-12-07T00:44:58;99787.97;;;12.62;51.75
75026;BME280;63591;50.080;8.286;2022-12-07T00:47:23;99787.97;;;12.62;52.15
75026;BME280;63591;50.080;8.286;2022-12-07T00:49:49;99794.91;;;12.63;52.08
75026;BME280;63591;50.080;8.286;2022-12-07T00:52:14;99798.34;;;12.64;51.88
75026;BME280;63591;50.080;8.286;2022-12-07T00:54:39;99795.69;;;12.64;52.02
75026;BME280;63591;50.080;8.286;2022-12-07T00:57:05;99796.69;;;12.63;52.23
75026;BME280;63591;50.080;8.286;2022-12-07T00:59:30;99796.69;;;12.63;52.22
75026;BME280;63591;50.080;8.286;2022-12-07T01:01:55;99791.28;;;12.64;52.05
75026;BME280;63591;50.080;8.286;2022-12-07T01:04:21;99791.28;;;12.64;51.79
75026;BME280;63591;50.080;8.286;2022-12-07T01:06:46;99785.31;;;12.62;51.94
75026;BME280;63591;50.080;8.286;2022-12-07T01:09:11;99779.91;;;12.64;51.99
75026;BME280;63591;50.080;8.286;2022-12-07T01:11:37;99779.09;;;12.63;52.37
75026;BME280;63591;50.080;8.286;2022-12-07T01:14:02;99777.44;;;12.62;52.06
75026;BME280;63591;50.080;8.286;2022-12-07T01:16:30;99777.44;;;12.62;51.94
75026;BME280;63591;50.080;8.286;2022-12-07T01:18:57;99776.63;;;12.62;51.99
75026;BME280;63591;50.080;8.286;2022-12-07T01:21:27;99777.44;;;12.62;52.12
75026;BME280;63591;50.080;8.286;2022-12-07T01:23:53;99777.44;;;12.62;52.22
75026;BME280;63591;50.080;8.286;2022-12-07T01:26:21;99774.78;;;12.62;52.29
75026;BME280;63591;50.080;8.286;2022-12-07T01:28:46;99769.53;;;12.62;52.21
75026;BME280;63591;50.080;8.286;2022-12-07T01:31:14;99768.72;;;12.62;52.10
75026;BME280;63591;50.080;8.286;2022-12-07T01:33:40;99765.09;;;12.63;52.19
75026;BME280;63591;50.080;8.286;2022-12-07T01:38:47;99774.78;;;12.62;52.17
75026;BME280;63591;50.080;8.286;2022-12-07T01:41:13;99769.53;;;12.62;52.04
75026;BME280;63591;50.080;8.286;2022-12-07T01:44:08;99775.13;;;12.59;52.02
75026;BME280;63591;50.080;8.286;2022-12-07T01:46:34;99776.47;;;12.63;52.12
75026;BME280;63591;50.080;8.286;2022-12-07T01:49:00;99777.44;;;12.62;52.15
75026;BME280;63591;50.080;8.286;2022-12-07T01:51:26;99780.06;;;12.62;52.13
75026;BME280;63591;50.080;8.286;2022-12-07T01:53:52;99779.25;;;12.62;52.17
75026;BME280;63591;50.080;8.286;2022-12-07T01:56:20;99785.31;;;12.62;51.95
75026;BME280;63591;50.080;8.286;2022-12-07T01:58:48;99781.88;;;12.62;52.09
75026;BME280;63591;50.080;8.286;2022-12-07T02:01:14;99774.78;;;12.62;52.26
75026;BME280;63591;50.080;8.286;2022-12-07T02:03:42;99764.25;;;12.62;52.16
75026;BME280;63591;50.080;8.286;2022-12-07T02:06:10;99756.34;;;12.62;52.15
75026;BME280;63591;50.080;8.286;2022-12-07T02:08:36;99752.09;;;12.61;52.12
75026;BME280;63591;50.080;8.286;2022-12-07T02:11:03;99746.81;;;12.61;52.24
75026;BME280;63591;50.080;8.286;2022-12-07T02:13:31;99748.47;;;12.62;52.14
75026;BME280;63591;50.080;8.286;2022-12-07T02:29:58;99746.66;;;12.63;52.17
75026;BME280;63591;50.080;8.286;2022-12-07T02:38:01;99741.56;;;12.61;52.43
75026;BME280;63591;50.080;8.286;2022-12-07T02:40:35;99746.00;;;12.61;52.30
75026;BME280;63591;50.080;8.286;2022-12-07T02:43:07;99740.56;;;12.62;52.45
75026;BME280;63591;50.080;8.286;2022-12-07T02:45:36;99736.28;;;12.61;52.41
75026;BME280;63591;50.080;8.286;2022-12-07T02:48:05;99748.47;;;12.62;52.47
75026;BME280;63591;50.080;8.286;2022-12-07T02:50:32;99743.19;;;12.62;52.57
75026;BME280;63591;50.080;8.286;2022-12-07T02:52:57;99737.13;;;12.62;52.33
75026;BME280;63591;50.080;8.286;2022-12-07T02:55:28;99734.50;;;12.62;52.47
75026;BME280;63591;50.080;8.286;2022-12-07T03:06:42;99721.16;;;12.63;52.43
75026;BME280;63591;50.080;8.286;2022-12-07T03:09:20;99717.53;;;12.64;52.57
75026;BME280;63591;50.080;8.286;2022-12-07T03:11:51;99718.53;;;12.63;52.65
75026;BME280;63591;50.080;8.286;2022-12-07T03:14:29;99717.69;;;12.63;52.63
75026;BME280;63591;50.080;8.286;2022-12-07T03:17:08;99721.16;;;12.63;52.60
75026;BME280;63591;50.080;8.286;2022-12-07T03:19:36;99715.75;;;12.65;52.55
75026;BME280;63591;50.080;8.286;2022-12-07T03:22:04;99715.75;;;12.65;52.47
75026;BME280;63591;50.080;8.286;2022-12-07T03:24:35;99720.16;;;12.64;52.61
75026;BME280;63591;50.080;8.286;2022-12-07T03:27:09;99719.34;;;12.64;52.60
75026;BME280;63591;50.080;8.286;2022-12-07T03:29:44;99711.28;;;12.66;52.63
75026;BME280;63591;50.080;8.286;2022-12-07T03:32:53;99715.75;;;12.65;52.63
75026;BME280;63591;50.080;8.286;2022-12-07T03:35:20;99706.00;;;12.66;52.75
75026;BME280;63591;50.080;8.286;2022-12-07T03:37:56;99704.38;;;12.64;52.40
75026;BME280;63591;50.080;8.286;2022-12-07T03:40:33;99703.53;;;12.64;52.76
75026;BME280;63591;50.080;8.286;2022-12-07T03:43:00;99701.59;;;12.66;52.60
75026;BME280;63591;50.080;8.286;2022-12-07T03:45:40;99697.47;;;12.63;52.83
75026;BME280;63591;50.080;8.286;2022-12-07T03:50:44;99713.75;;;12.67;52.49
75026;BME280;63591;50.080;8.286;2022-12-07T03:53:29;99708.81;;;12.64;52.69
75026;BME280;63591;50.080;8.286;2022-12-07T03:55:58;99707.69;;;12.67;52.84
75026;BME280;63591;50.080;8.286;2022-12-07T03:58:25;99702.41;;;12.67;52.87
75026;BME280;63591;50.080;8.286;2022-12-07T04:00:50;99708.50;;;12.67;52.66
75026;BME280;63591;50.080;8.286;2022-12-07T04:03:16;99704.22;;;12.66;52.63
75026;BME280;63591;50.080;8.286;2022-12-07T04:05:42;99699.09;;;12.64;52.85
75026;BME280;63591;50.080;8.286;2022-12-07T04:08:08;99702.56;;;12.65;52.92
75026;BME280;63591;50.080;8.286;2022-12-07T04:10:34;99698.94;;;12.66;52.74
75026;BME280;63591;50.080;8.286;2022-12-07T04:12:59;99701.59;;;12.66;52.63
75026;BME280;63591;50.080;8.286;2022-12-07T04:15:25;99708.66;;;12.66;52.62
75026;BME280;63591;50.080;8.286;2022-12-07T04:17:50;99709.63;;;12.64;52.86
75026;BME280;63591;50.080;8.286;2022-12-07T04:20:16;99699.94;;;12.65;52.90
75026;BME280;63591;50.080;8.286;2022-12-07T04:22:41;99712.94;;;12.67;52.58
75026;BME280;63591;50.080;8.286;2022-12-07T04:25:06;99702.56;;;12.65;52.95
75026;BME280;63591;50.080;8.286;2022-12-07T04:27:32;99705.06;;;12.67;52.78
75026;BME280;63591;50.080;8.286;2022-12-07T04:29:57;99711.13;;;12.67;52.82
75026;BME280;63591;50.080;8.286;2022-12-07T04:32:23;99709.31;;;12.68;52.70
75026;BME280;63591;50.080;8.286;2022-12-07T04:34:49;99702.41;;;12.67;52.58
75026;BME280;63591;50.080;8.286;2022-12-07T04:37:14;99697.16;;;12.67;52.78
75026;BME280;63591;50.080;8.286;2022-12-07T04:39:40;99705.69;;;12.69;52.64
75026;BME280;63591;50.080;8.286;2022-12-07T04:42:05;99707.53;;;12.68;52.69
75026;BME280;63591;50.080;8.286;2022-12-07T04:44:31;99699.63;;;12.68;52.76
75026;BME280;63591;50.080;8.286;2022-12-07T04:46:56;99695.16;;;12.69;52.67
75026;BME280;63591;50.080;8.286;2022-12-07T04:49:22;99698.78;;;12.68;52.61
75026;BME280;63591;50.080;8.286;2022-12-07T04:51:49;99693.53;;;12.68;52.51
75026;BME280;63591;50.080;8.286;2022-12-07T04:54:15;99692.69;;;12.67;52.68
75026;BME280;63591;50.080;8.286;2022-12-07T04:56:41;99686.63;;;12.67;52.92
75026;BME280;63591;50.080;8.286;2022-12-07T04:59:07;99697.16;;;12.67;52.96
75026;BME280;63591;50.080;8.286;2022-12-07T05:01:32;99698.94;;;12.66;52.74
75026;BME280;63591;50.080;8.286;2022-12-07T05:03:58;99700.59;;;12.67;52.75
75026;BME280;63591;50.080;8.286;2022-12-07T05:06:24;99705.84;;;12.67;52.92
75026;BME280;63591;50.080;8.286;2022-12-07T05:08:50;99702.25;;;12.68;52.78
75026;BME280;63591;50.080;8.286;2022-12-07T05:11:15;99700.44;;;12.69;52.85
75026;BME280;63591;50.080;8.286;2022-12-07T05:13:59;99699.63;;;12.68;52.72
75026;BME280;63591;50.080;8.286;2022-12-07T05:16:25;99698.63;;;12.69;52.76
75026;BME280;63591;50.080;8.286;2022-12-07T05:18:50;99700.44;;;12.69;52.92
75026;BME280;63591;50.080;8.286;2022-12-07T05:21:16;99701.25;;;12.69;52.89
75026;BME280;63591;50.080;8.286;2022-12-07T05:23:41;99703.06;;;12.69;53.03
75026;BME280;63591;50.080;8.286;2022-12-07T05:26:06;99696.00;;;12.69;53.04
75026;BME280;63591;50.080;8.286;2022-12-07T05:28:31;99702.09;;;12.70;52.82
75026;BME280;63591;50.080;8.286;2022-12-07T05:30:57;99698.63;;;12.69;53.06
75026;BME280;63591;50.080;8.286;2022-12-07T05:33:22;99690.72;;;12.69;53.12
75026;BME280;63591;50.080;8.286;2022-12-07T05:35:47;99695.00;;;12.70;52.98
75026;BME280;63591;50.080;8.286;2022-12-07T05:38:12;99695.00;;;12.70;52.98
75026;BME280;63591;50.080;8.286;2022-12-07T05:40:38;99691.41;;;12.71;52.79
75026;BME280;63591;50.080;8.286;2022-12-07T05:43:03;99695.69;;;12.72;53.23
75026;BME280;63591;50.080;8.286;2022-12-07T05:45:28;99699.94;;;12.73;53.03
75026;BME280;63591;50.080;8.286;2022-12-07T05:47:54;99693.03;;;12.72;53.20
75026;BME280;63591;50.080;8.286;2022-12-07T05:50:19;99694.84;;;12.72;52.97
75026;BME280;63591;50.080;8.286;2022-12-07T05:52:44;99692.22;;;12.72;53.05
75026;BME280;63591;50.080;8.286;2022-12-07T05:55:10;99701.75;;;12.73;53.22
75026;BME280;63591;50.080;8.286;2022-12-07T05:57:35;99695.69;;;12.72;52.97
75026;BME280;63591;50.080;8.286;2022-12-07T06:00:00;99696.47;;;12.73;52.89
75026;BME280;63591;50.080;8.286;2022-12-07T06:02:26;99697.47;;;12.72;53.15
75026;BME280;63591;50.080;8.286;2022-12-07T06:04:51;99695.69;;;12.72;53.25
75026;BME280;63591;50.080;8.286;2022-12-07T06:07:17;99696.47;;;12.73;53.02
75026;BME280;63591;50.080;8.286;2022-12-07T06:09:42;99693.03;;;12.72;53.20
75026;BME280;63591;50.080;8.286;2022-12-07T06:12:10;99695.69;;;12.72;52.89
75026;BME280;63591;50.080;8.286;2022-12-07T06:14:54;99691.22;;;12.73;52.88
75026;BME280;63591;50.080;8.286;2022-12-07T06:17:25;99692.88;;;12.74;53.19
75026;BME280;63591;50.080;8.286;2022-12-07T06:19:51;99690.25;;;12.74;53.04
75026;BME280;63591;50.080;8.286;2022-12-07T06:22:16;99692.88;;;12.74;53.13
75026;BME280;63591;50.080;8.286;2022-12-07T06:24:43;99681.50;;;12.73;53.15
75026;BME280;63591;50.080;8.286;2022-12-07T06:27:09;99687.63;;;12.74;53.05
75026;BME280;63591;50.080;8.286;2022-12-07T06:29:35;99693.03;;;12.72;53.61
75026;BME280;63591;50.080;8.286;2022-12-07T06:32:01;99695.50;;;12.74;53.30
75026;BME280;63591;50.080;8.286;2022-12-07T06:34:29;99695.69;;;12.72;53.22
75026;BME280;63591;50.080;8.286;2022-12-07T06:36:55;99697.31;;;12.73;53.17
75026;BME280;63591;50.080;8.286;2022-12-07T06:39:22;99693.84;;;12.73;53.33
75026;BME280;63591;50.080;8.286;2022-12-07T06:41:49;99691.22;;;12.73;53.13
75026;BME280;63591;50.080;8.286;2022-12-07T06:44:15;99701.94;;;12.71;53.15
75026;BME280;63591;50.080;8.286;2022-12-07T06:46:40;99701.09;;;12.71;53.00
75026;BME280;63591;50.080;8.286;2022-12-07T06:49:06;99698.31;;;12.72;53.23
75026;BME280;63591;50.080;8.286;2022-12-07T06:51:32;99697.47;;;12.72;53.13
75026;BME280;63591;50.080;8.286;2022-12-07T06:53:57;99691.22;;;12.73;52.99
75026;BME280;63591;50.080;8.286;2022-12-07T06:56:23;99700.28;;;12.70;52.87
75026;BME280;63591;50.080;8.286;2022-12-07T06:58:49;99689.91;;;12.69;53.00
75026;BME280;63591;50.080;8.286;2022-12-07T07:01:16;99697.16;;;12.67;52.86
75026;BME280;63591;50.080;8.286;2022-12-07T07:03:43;99700.75;;;12.66;53.01
75026;BME280;63591;50.080;8.286;2022-12-07T07:06:09;99700.75;;;12.66;52.94
75026;BME280;63591;50.080;8.286;2022-12-07T07:08:38;99706.16;;;12.64;52.81
75026;BME280;63591;50.080;8.286;2022-12-07T07:11:05;99706.16;;;12.64;52.77
75026;BME280;63591;50.080;8.286;2022-12-07T07:13:30;99716.88;;;12.62;52.81
75026;BME280;63591;50.080;8.286;2022-12-07T07:15:56;99721.16;;;12.63;52.65
75026;BME280;63591;50.080;8.286;2022-12-07T07:18:22;99717.69;;;12.63;52.94
75026;BME280;63591;50.080;8.286;2022-12-07T07:20:47;99724.75;;;12.62;52.71
75026;BME280;63591;50.080;8.286;2022-12-07T07:23:13;99716.06;;;12.62;52.81
75026;BME280;63591;50.080;8.286;2022-12-07T07:25:38;99725.59;;;12.63;52.71
75026;BME280;63591;50.080;8.286;2022-12-07T07:28:04;99726.59;;;12.62;52.64
75026;BME280;63591;50.080;8.286;2022-12-07T07:30:30;99725.75;;;12.61;52.60
75026;BME280;63591;50.080;8.286;2022-12-07T07:32:57;99726.59;;;12.62;52.67
75026;BME280;63591;50.080;8.286;2022-12-07T07:35:23;99720.50;;;12.61;52.72
75026;BME280;63591;50.080;8.286;2022-12-07T07:37:49;99734.50;;;12.62;52.43
75026;BME280;63591;50.080;8.286;2022-12-07T07:40:14;99727.41;;;12.62;52.76
75026;BME280;63591;50.080;8.286;2022-12-07T07:42:39;99723.97;;;12.62;52.65
75026;BME280;63591;50.080;8.286;2022-12-07T07:45:05;99736.28;;;12.61;52.76
75026;BME280;63591;50.080;8.286;2022-12-07T07:47:31;99732.00;;;12.60;52.71
75026;BME280;63591;50.080;8.286;2022-12-07T07:49:56;99736.44;;;12.60;52.16
75026;BME280;63591;50.080;8.286;2022-12-07T07:52:22;99726.06;;;12.58;52.65
75026;BME280;63591;50.080;8.286;2022-12-07T07:54:47;99740.06;;;12.59;52.50
75026;BME280;63591;50.080;8.286;2022-12-07T07:57:12;99730.53;;;12.58;52.90
75026;BME280;63591;50.080;8.286;2022-12-07T07:59:38;99739.25;;;12.58;52.71
75026;BME280;63591;50.080;8.286;2022-12-07T08:02:03;99735.81;;;12.58;52.66
75026;BME280;63591;50.080;8.286;2022-12-07T08:04:28;99729.69;;;12.57;52.68
75026;BME280;63591;50.080;8.286;2022-12-07T08:06:53;99733.16;;;12.58;52.84
75026;BME280;63591;50.080;8.286;2022-12-07T08:09:19;99734.81;;;12.59;52.65
75026;BME280;63591;50.080;8.286;2022-12-07T08:11:44;99734.81;;;12.59;52.86
75026;BME280;63591;50.080;8.286;2022-12-07T08:14:10;99751.44;;;12.59;52.68
75026;BME280;63591;50.080;8.286;2022-12-07T08:16:37;99743.53;;;12.59;52.85
75026;BME280;63591;50.080;8.286;2022-12-07T08:19:04;99741.88;;;12.58;52.85
75026;BME280;63591;50.080;8.286;2022-12-07T08:21:29;99740.91;;;12.59;52.79
75026;BME280;63591;50.080;8.286;2022-12-07T08:23:57;99746.16;;;12.59;53.12
75026;BME280;63591;50.080;8.286;2022-12-07T08:26:22;99744.34;;;12.60;53.16
75026;BME280;63591;50.080;8.286;2022-12-07T08:28:47;99733.00;;;12.59;52.85
75026;BME280;63591;50.080;8.286;2022-12-07T08:31:16;99741.72;;;12.60;53.09
75026;BME280;63591;50.080;8.286;2022-12-07T08:33:45;99739.09;;;12.60;53.03
75026;BME280;63591;50.080;8.286;2022-12-07T08:36:12;99739.91;;;12.60;53.16
75026;BME280;63591;50.080;8.286;2022-12-07T08:38:38;99736.28;;;12.61;53.21
75026;BME280;63591;50.080;8.286;2022-12-07T08:41:04;99740.72;;;12.61;53.43
75026;BME280;63591;50.080;8.286;2022-12-07T08:43:30;99743.34;;;12.61;53.14
75026;BME280;63591;50.080;8.286;2022-12-07T08:46:09;99745.03;;;12.62;53.18
75026;BME280;63591;50.080;8.286;2022-12-07T08:48:39;99752.09;;;12.61;53.42
75026;BME280;63591;50.080;8.286;2022-12-07T08:51:06;99753.72;;;12.62;53.29
75026;BME280;63591;50.080;8.286;2022-12-07T08:53:32;99745.81;;;12.62;53.31
75026;BME280;63591;50.080;8.286;2022-12-07T08:55:58;99743.19;;;12.62;53.23
75026;BME280;63591;50.080;8.286;2022-12-07T08:58:24;99743.34;;;12.61;53.32
75026;BME280;63591;50.080;8.286;2022-12-07T09:00:49;99740.72;;;12.61;53.45
75026;BME280;63591;50.080;8.286;2022-12-07T09:03:15;99741.56;;;12.61;53.66
75026;BME280;63591;50.080;8.286;2022-12-07T09:05:40;99752.91;;;12.62;53.50
75026;BME280;63591;50.080;8.286;2022-12-07T09:08:06;99745.81;;;12.62;53.53
75026;BME280;63591;50.080;8.286;2022-12-07T09:10:32;99746.66;;;12.63;53.45
75026;BME280;63591;50.080;8.286;2022-12-07T09:12:58;99744.88;;;12.63;53.47
75026;BME280;63591;50.080;8.286;2022-12-07T09:15:27;99747.50;;;12.63;53.43
75026;BME280;63591;50.080;8.286;2022-12-07T09:17:53;99743.03;;;12.64;53.53
75026;BME280;63591;50.080;8.286;2022-12-07T09:20:18;99746.50;;;12.64;53.55
75026;BME280;63591;50.080;8.286;2022-12-07T09:22:43;99759.50;;;12.66;53.67
75026;BME280;63591;50.080;8.286;2022-12-07T09:25:09;99754.09;;;12.68;53.90
75026;BME280;63591;50.080;8.286;2022-12-07T09:27:34;99754.09;;;12.68;53.65
75026;BME280;63591;50.080;8.286;2022-12-07T09:30:00;99751.47;;;12.68;53.86
75026;BME280;63591;50.080;8.286;2022-12-07T09:32:26;99756.72;;;12.68;53.85
75026;BME280;63591;50.080;8.286;2022-12-07T09:34:51;99755.72;;;12.69;53.79
75026;BME280;63591;50.080;8.286;2022-12-07T09:37:16;99753.94;;;12.69;54.03
75026;BME280;63591;50.080;8.286;2022-12-07T09:39:41;99759.19;;;12.69;53.94
75026;BME280;63591;50.080;8.286;2022-12-07T09:42:07;99759.19;;;12.69;53.90
75026;BME280;63591;50.080;8.286;2022-12-07T09:44:34;99747.66;;;12.70;54.16
75026;BME280;63591;50.080;8.286;2022-12-07T09:47:00;99752.78;;;12.72;53.85
75026;BME280;63591;50.080;8.286;2022-12-07T09:49:28;99752.78;;;12.72;53.96
75026;BME280;63591;50.080;8.286;2022-12-07T09:54:30;99750.81;;;12.74;54.18
75026;BME280;63591;50.080;8.286;2022-12-07T09:56:56;99743.72;;;12.74;54.32
75026;BME280;63591;50.080;8.286;2022-12-07T09:59:21;99748.84;;;12.76;54.18
75026;BME280;63591;50.080;8.286;2022-12-07T10:01:49;99740.78;;;12.77;54.35
75026;BME280;63591;50.080;8.286;2022-12-07T10:04:40;99737.66;;;12.74;54.36
75026;BME280;63591;50.080;8.286;2022-12-07T10:07:06;99736.19;;;12.80;54.36
75026;BME280;63591;50.080;8.286;2022-12-07T10:09:31;99729.13;;;12.80;54.25
75026;BME280;63591;50.080;8.286;2022-12-07T10:12:09;99730.25;;;12.77;54.33
75026;BME280;63591;50.080;8.286;2022-12-07T10:14:37;99723.84;;;12.80;54.22
75026;BME280;63591;50.080;8.286;2022-12-07T10:20:17;99714.28;;;12.79;54.30
75026;BME280;63591;50.080;8.286;2022-12-07T10:23:00;99710.69;;;12.80;54.24
75026;BME280;63591;50.080;8.286;2022-12-07T10:25:30;99709.69;;;12.81;54.17
75026;BME280;63591;50.080;8.286;2022-12-07T10:30:46;99705.41;;;12.80;54.21
75026;BME280;63591;50.080;8.286;2022-12-07T10:33:36;99705.41;;;12.80;54.30
75026;BME280;63591;50.080;8.286;2022-12-07T10:36:24;99700.00;;;12.82;53.97
75026;BME280;63591;50.080;8.286;2022-12-07T10:39:22;99697.50;;;12.80;53.90
75026;BME280;63591;50.080;8.286;2022-12-07T10:44:27;99688.28;;;12.84;53.68
75026;BME280;63591;50.080;8.286;2022-12-07T10:50:01;99682.19;;;12.84;53.76
75026;BME280;63591;50.080;8.286;2022-12-07T10:52:51;99687.63;;;12.82;53.66
75026;BME280;63591;50.080;8.286;2022-12-07T10:55:26;99685.50;;;12.86;53.69
75026;BME280;63591;50.080;8.286;2022-12-07T10:58:16;99689.94;;;12.85;53.69
75026;BME280;63591;50.080;8.286;2022-12-07T11:06:34;99685.03;;;12.91;53.48
75026;BME280;63591;50.080;8.286;2022-12-07T11:12:24;99689.63;;;12.88;53.86
75026;BME280;63591;50.080;8.286;2022-12-07T11:23:31;99672.16;;;12.87;53.73
75026;BME280;63591;50.080;8.286;2022-12-07T11:26:32;99670.19;;;12.89;53.82
75026;BME280;63591;50.080;8.286;2022-12-07T11:29:14;99670.19;;;12.89;53.62
75026;BME280;63591;50.080;8.286;2022-12-07T11:37:23;99660.63;;;12.88;53.65
75026;BME280;63591;50.080;8.286;2022-12-07T11:39:53;99660.47;;;12.90;53.66
75026;BME280;63591;50.080;8.286;2022-12-07T11:42:26;99660.63;;;12.88;53.80
75026;BME280;63591;50.080;8.286;2022-12-07T11:45:19;99655.53;;;12.87;53.76
75026;BME280;63591;50.080;8.286;2022-12-07T11:50:25;99646.63;;;12.88;53.79
75026;BME280;63591;50.080;8.286;2022-12-07T11:53:10;99647.47;;;12.88;54.13
75026;BME280;63591;50.080;8.286;2022-12-07T12:01:01;99646.00;;;12.86;54.05
75026;BME280;63591;50.080;8.286;2022-12-07T12:03:34;99639.72;;;12.87;54.08
75026;BME280;63591;50.080;8.286;2022-12-07T12:06:00;99639.72;;;12.87;54.06
75026;BME280;63591;50.080;8.286;2022-12-07T12:08:33;99633.78;;;12.85;53.98
75026;BME280;63591;50.080;8.286;2022-12-07T12:11:08;99636.41;;;12.85;54.17
75026;BME280;63591;50.080;8.286;2022-12-07T12:21:55;99622.44;;;12.84;54.22
75026;BME280;63591;50.080;8.286;2022-12-07T12:24:24;99624.09;;;12.85;53.92
75026;BME280;63591;50.080;8.286;2022-12-07T12:27:07;99618.16;;;12.83;54.12
75026;BME280;63591;50.080;8.286;2022-12-07T12:29:37;99617.81;;;12.86;54.33
75026;BME280;63591;50.080;8.286;2022-12-07T12:32:06;99617.00;;;12.86;54.12
75026;BME280;63591;50.080;8.286;2022-12-07T12:34:40;99624.09;;;12.85;54.10
75026;BME280;63591;50.080;8.286;2022-12-07T12:42:54;99595.09;;;12.85;54.08
75026;BME280;63591;50.080;8.286;2022-12-07T12:45:28;99598.75;;;12.84;54.22
75026;BME280;63591;50.080;8.286;2022-12-07T12:48:01;99597.91;;;12.84;53.94
75026;BME280;63591;50.080;8.286;2022-12-07T12:50:37;99597.91;;;12.84;54.10
75026;BME280;63591;50.080;8.286;2022-12-07T12:53:16;99595.09;;;12.85;54.10
75026;BME280;63591;50.080;8.286;2022-12-07T12:56:11;99599.53;;;12.85;54.01
75026;BME280;63591;50.080;8.286;2022-12-07T12:58:41;99595.94;;;12.86;53.96
75026;BME280;63591;50.080;8.286;2022-12-07T13:01:36;99588.53;;;12.81;54.00
75026;BME280;63591;50.080;8.286;2022-12-07T13:04:17;99585.72;;;12.83;53.93
75026;BME280;63591;50.080;8.286;2022-12-07T13:06:43;99579.63;;;12.82;53.97
75026;BME280;63591;50.080;8.286;2022-12-07T13:09:25;99577.31;;;12.79;54.04
75026;BME280;63591;50.080;8.286;2022-12-07T13:12:02;99578.31;;;12.78;53.93
75026;BME280;63591;50.080;8.286;2022-12-07T13:14:42;99581.13;;;12.76;54.04
75026;BME280;63591;50.080;8.286;2022-12-07T13:17:12;99578.31;;;12.78;54.36
75026;BME280;63591;50.080;8.286;2022-12-07T13:19:59;99579.97;;;12.79;54.23
75026;BME280;63591;50.080;8.286;2022-12-07T13:25:23;99580.44;;;12.74;54.06
75026;BME280;63591;50.080;8.286;2022-12-07T13:27:57;99581.94;;;12.77;54.21
75026;BME280;63591;50.080;8.286;2022-12-07T13:30:26;99581.94;;;12.77;53.86
75026;BME280;63591;50.080;8.286;2022-12-07T13:32:55;99589.84;;;12.77;54.28
75026;BME280;63591;50.080;8.286;2022-12-07T13:35:47;99586.53;;;12.75;54.47
75026;BME280;63591;50.080;8.286;2022-12-07T13:38:27;99593.28;;;12.77;54.31
75026;BME280;63591;50.080;8.286;2022-12-07T13:41:11;99591.66;;;12.76;54.20
75026;BME280;63591;50.080;8.286;2022-12-07T13:46:11;99583.59;;;12.78;54.19
75026;BME280;63591;50.080;8.286;2022-12-07T13:48:49;99587.22;;;12.77;54.34
75026;BME280;63591;50.080;8.286;2022-12-07T13:51:26;99583.59;;;12.78;54.31
75026;BME280;63591;50.080;8.286;2022-12-07T13:53:59;99587.22;;;12.77;54.17
75026;BME280;63591;50.080;8.286;2022-12-07T13:56:32;99594.94;;;12.79;54.57
75026;BME280;63591;50.080;8.286;2022-12-07T13:58:59;99595.75;;;12.79;54.60
75026;BME280;63591;50.080;8.286;2022-12-07T14:01:25;99593.13;;;12.79;54.61
75026;BME280;63591;50.080;8.286;2022-12-07T14:03:51;99595.75;;;12.79;54.64
75026;BME280;63591;50.080;8.286;2022-12-07T14:06:20;99581.94;;;12.77;54.85
75026;BME280;63591;50.080;8.286;2022-12-07T14:08:47;99580.94;;;12.78;54.81
75026;BME280;63591;50.080;8.286;2022-12-07T14:11:16;99580.94;;;12.78;54.98
75026;BME280;63591;50.080;8.286;2022-12-07T14:13:56;99573.38;;;12.75;54.88
75026;BME280;63591;50.080;8.286;2022-12-07T14:16:34;99577.66;;;12.76;54.96
75026;BME280;63591;50.080;8.286;2022-12-07T14:19:04;99578.31;;;12.78;55.10
75026;BME280;63591;50.080;8.286;2022-12-07T14:21:32;99579.31;;;12.77;54.95
75026;BME280;63591;50.080;8.286;2022-12-07T14:24:19;99577.81;;;12.74;54.85
75026;BME280;63591;50.080;8.286;2022-12-07T14:26:49;99574.03;;;12.77;54.76
75026;BME280;63591;50.080;8.286;2022-12-07T14:31:51;99573.22;;;12.76;55.13
75026;BME280;63591;50.080;8.286;2022-12-07T14:34:20;99571.56;;;12.75;55.20
75026;BME280;63591;50.080;8.286;2022-12-07T14:36:45;99571.56;;;12.75;55.25
75026;BME280;63591;50.080;8.286;2022-12-07T14:39:11;99573.38;;;12.75;55.15
75026;BME280;63591;50.080;8.286;2022-12-07T14:41:36;99572.53;;;12.74;55.27
75026;BME280;63591;50.080;8.286;2022-12-07T14:44:18;99572.38;;;12.76;55.18
75026;BME280;63591;50.080;8.286;2022-12-07T14:46:43;99562.00;;;12.74;55.45
75026;BME280;63591;50.080;8.286;2022-12-07T14:49:09;99567.28;;;12.74;55.22
75026;BME280;63591;50.080;8.286;2022-12-07T14:51:36;99568.28;;;12.73;55.39